Historique des mesures à Cassis (13260), France
Quotidien Résumé Juillet 2, 2018 Unités:  Métrique    US   Métrique/US
« Précédent (Jour)
Suivant (Jour) »
Quotidien Hebdomadaire Mensuel Annuel Période au choix
  Maximum: Minimum: Moyenne:
Température: TemperatureC °C 21.4 °C 25.2 °C
Point de rosée: DewpointC °C 15.0 °C 18.7 °C
Humidité: Humidity % 59 % 64 %
Vitesse du vent: 0 km/h 0 km/h 3.5 km/h
Rafales: 0 km/h - -
Vent:- - SSW
Pression: PressurehPa hPa 1006.2 hPa -
Précipitations: 0.0 mm    
Historical Graphs
 
 
Mesures pour : Juillet 2, 2018
Heure Temperature Point de rosée Pression Vent Vitesse du vent Rafales Humidité Pluie (par heure) Conditions
TemperatureC °C DewpointC °C PressurehPa hPa Calm     Humidity % HourlyPrecipMM mm SoftwareType W/m2
00:10 23.3 °C 17.6 °C 1007.1 hPa Calm     70 % 0.0 mm open2300-1.11 W/m2
01:10 22.8 °C 17.1 °C 1007.2 hPa Calm     70 % 0.0 mm open2300-1.11 W/m2
02:10 22.4 °C 17.1 °C 1007.1 hPa Calm     72 % 0.0 mm open2300-1.11 W/m2
03:10 22.1 °C 17.0 °C 1006.8 hPa Calm   2.3 km/h 73 % 0.0 mm open2300-1.11 W/m2
04:10 22.1 °C 16.6 °C 1006.2 hPa North 1.8 km/h 1.8 km/h 71 % 0.0 mm open2300-1.11 W/m2
05:10 21.6 °C 15.2 °C 1006.4 hPa Calm   2.9 km/h 67 % 0.0 mm open2300-1.11 W/m2
06:10 21.4 °C 15.0 °C 1007.0 hPa NW 5.6 km/h 5.6 km/h 67 % 0.0 mm open2300-1.11 W/m2
07:10 22.0 °C 15.6 °C 1007.5 hPa WNW 4.7 km/h 4.7 km/h 67 % 0.0 mm open2300-1.11 W/m2
08:10 24.3 °C 17.1 °C 1007.7 hPa Calm     64 % 0.0 mm open2300-1.11 W/m2
09:10 25.2 °C 18.4 °C 1007.9 hPa ENE 1.8 km/h 4.2 km/h 66 % 0.0 mm open2300-1.11 W/m2
10:10 26.5 °C 19.9 °C 1008.0 hPa SW 7.6 km/h 7.6 km/h 67 % 0.0 mm open2300-1.11 W/m2
11:10 30.6 °C 22.0 °C 1008.1 hPa WNW 12.2 km/h 12.2 km/h 60 % 0.0 mm open2300-1.11 W/m2
12:10 30.9 °C 22.6 °C 1008.7 hPa WSW 9.3 km/h 20.3 km/h 61 % 0.0 mm open2300-1.11 W/m2
13:10 31.2 °C 22.6 °C 1008.9 hPa South 4.2 km/h 9.3 km/h 60 % 0.0 mm open2300-1.11 W/m2
14:10 31.2 °C 22.3 °C 1008.7 hPa NNW 2.3 km/h 16.3 km/h 59 % 0.0 mm open2300-1.11 W/m2
15:10 30.7 °C 22.1 °C 1008.8 hPa SE 14.5 km/h 14.5 km/h 60 % 0.0 mm open2300-1.11 W/m2
16:10 30.2 °C 21.8 °C 1008.5 hPa South 6.4 km/h 6.9 km/h 61 % 0.0 mm open2300-1.11 W/m2
17:10 29.5 °C 21.4 °C 1008.6 hPa SSW 4.7 km/h 10.9 km/h 62 % 0.0 mm open2300-1.11 W/m2
18:10 29.1 °C 21.6 °C 1008.7 hPa South 5.1 km/h 13.2 km/h 64 % 0.0 mm open2300-1.11 W/m2
19:10 28.3 °C 21.1 °C 1008.6 hPa Calm     65 % 0.0 mm open2300-1.11 W/m2
20:10 27.3 °C 20.9 °C 1008.8 hPa SSW 5.6 km/h 5.6 km/h 68 % 0.0 mm open2300-1.11 W/m2
21:10 26.3 °C 20.6 °C 1008.6 hPa West 3.4 km/h 6.4 km/h 71 % 0.0 mm open2300-1.11 W/m2
22:10 26.1 °C 20.7 °C 1009.7 hPa Calm   2.3 km/h 72 % 0.0 mm open2300-1.11 W/m2
23:10 25.8 °C 20.6 °C 1009.8 hPa Calm     73 % 0.0 mm open2300-1.11 W/m2
Observations météo à CASSIS
WU-History script by Weather Underground - 1 mb